Time;durP1;ratioP1;P1;durP2;ratioP2;P2;SDS_P1;SDS_P2;PMS_P1;PMS_P2;Temp;Humidity;BMP_temperature;BMP_pressure;BME280_temperature;BME280_humidity;BME280_pressure;Samples;Min_cycle;Max_cycle;Signal;HPM_P1;HPM_P2
2022/07/16 00:02:01;;;;;;;13.57;8.55;;;;;;;20.70;68.51;94823.25;4965117;28;20207;-83
2022/07/16 00:04:28;;;;;;;19.20;9.43;;;;;;;20.63;68.73;94814.88;4956515;28;20208;-83
2022/07/16 00:06:56;;;;;;;18.42;8.85;;;;;;;20.68;68.59;94818.25;4964180;28;20205;-82
2022/07/16 00:09:23;;;;;;;15.02;8.65;;;;;;;20.71;69.18;94816.91;4960521;28;20571;-82
2022/07/16 00:11:50;;;;;;;15.30;8.20;;;;;;;20.70;69.28;94817.97;4953769;28;20671;-82
2022/07/16 00:14:16;;;;;;;14.63;8.13;;;;;;;20.59;69.31;94804.06;4968650;28;20224;-82
2022/07/16 00:16:43;;;;;;;13.00;5.55;;;;;;;20.59;67.54;94817.28;4965973;28;20589;-82
2022/07/16 00:19:19;;;;;;;6.32;4.95;;;;;;;20.52;66.26;94816.78;4964520;28;20208;-82
2022/07/16 00:21:49;;;;;;;7.38;4.72;;;;;;;20.48;65.92;94812.34;4969676;28;20233;-82
2022/07/16 00:24:18;;;;;;;10.75;6.22;;;;;;;20.47;67.17;94810.75;4960902;28;20287;-82
2022/07/16 00:26:46;;;;;;;14.02;7.85;;;;;;;20.58;67.66;94820.19;4960015;28;20212;-82
2022/07/16 00:29:15;;;;;;;18.02;8.13;;;;;;;20.57;68.66;94819.41;4959577;28;20684;-82
2022/07/16 00:31:42;;;;;;;13.80;7.88;;;;;;;20.53;69.01;94821.00;4959605;28;20700;-82
2022/07/16 00:34:10;;;;;;;14.63;8.10;;;;;;;20.53;69.07;94820.22;4963511;28;20228;-81
2022/07/16 00:36:37;;;;;;;11.43;7.20;;;;;;;20.51;68.52;94812.59;4963369;28;20205;-83
2022/07/16 00:39:05;;;;;;;13.13;6.80;;;;;;;20.51;67.89;94817.88;4973095;28;20294;-84
2022/07/16 00:41:34;;;;;;;16.30;7.55;;;;;;;20.51;68.81;94817.88;4957054;28;20215;-84
2022/07/16 00:44:03;;;;;;;13.27;7.63;;;;;;;20.52;68.96;94819.44;4956749;28;20296;-85
2022/07/16 00:46:30;;;;;;;13.57;7.22;;;;;;;20.49;68.53;94819.22;4972871;28;20215;-84
2022/07/16 00:48:58;;;;;;;13.13;7.57;;;;;;;20.50;68.93;94816.28;4972940;28;20209;-85
2022/07/16 00:51:25;;;;;;;11.00;7.53;;;;;;;20.46;69.34;94817.13;4972707;28;20197;-85
2022/07/16 00:53:53;;;;;;;14.23;7.65;;;;;;;20.44;69.98;94824.50;4972595;28;20208;-82
2022/07/16 00:56:24;;;;;;;16.00;7.10;;;;;;;20.44;69.98;94821.88;4966877;28;20212;-81
2022/07/16 00:58:54;;;;;;;11.10;6.63;;;;;;;20.45;69.65;94818.16;4962886;28;20225;-81
2022/07/16 01:01:22;;;;;;;18.75;6.80;;;;;;;20.44;69.56;94817.38;4960444;28;20586;-81
2022/07/16 01:03:49;;;;;;;10.52;6.82;;;;;;;20.36;69.67;94820.59;4963949;28;20663;-81
2022/07/16 01:06:16;;;;;;;14.38;6.82;;;;;;;20.32;69.73;94820.34;4972407;28;20630;-81
2022/07/16 01:08:45;;;;;;;13.38;6.88;;;;;;;20.30;70.13;94830.41;4968717;28;20198;-81
2022/07/16 01:11:13;;;;;;;12.02;6.70;;;;;;;20.29;70.23;94823.53;4970153;28;20216;-81
2022/07/16 01:13:42;;;;;;;15.07;7.45;;;;;;;20.32;70.54;94824.84;4959322;28;20651;-81
2022/07/16 01:16:11;;;;;;;14.02;6.53;;;;;;;20.36;70.53;94831.16;4965585;28;20240;-81
2022/07/16 01:18:40;;;;;;;9.20;6.22;;;;;;;20.36;70.44;94818.75;4968768;28;20225;-81
2022/07/16 01:21:08;;;;;;;10.85;6.30;;;;;;;20.31;70.73;94820.66;4964372;28;20201;-81
2022/07/16 01:23:36;;;;;;;11.15;5.78;;;;;;;20.27;70.74;94824.88;4961518;28;20210;-81
2022/07/16 01:26:03;;;;;;;9.77;6.00;;;;;;;20.21;70.70;94826.75;4964102;28;20417;-81
2022/07/16 01:28:30;;;;;;;9.25;5.28;;;;;;;20.11;70.43;94815.47;4959346;28;20204;-82
2022/07/16 01:30:57;;;;;;;8.85;4.93;;;;;;;20.13;69.99;94829.97;4961722;28;20206;-86
2022/07/16 01:33:27;;;;;;;9.02;4.93;;;;;;;20.15;68.73;94830.47;4969831;28;20648;-83
2022/07/16 01:35:56;;;;;;;6.70;4.07;;;;;;;20.15;68.79;94829.69;4972588;28;20582;-84
2022/07/16 01:38:23;;;;;;;10.68;5.28;;;;;;;20.07;69.66;94822.34;4968064;28;20232;-84
2022/07/16 01:40:52;;;;;;;8.80;5.18;;;;;;;20.06;70.28;94831.31;4963221;28;20204;-84
2022/07/16 01:43:22;;;;;;;7.95;4.88;;;;;;;20.05;70.30;94825.25;4971371;28;20215;-84
2022/07/16 01:45:49;;;;;;;6.63;4.78;;;;;;;20.05;70.39;94825.25;4960535;28;20201;-84
2022/07/16 01:48:18;;;;;;;6.13;4.97;;;;;;;20.01;71.02;94823.41;4970188;28;20302;-84
2022/07/16 01:50:45;;;;;;;10.80;5.30;;;;;;;19.98;71.66;94826.59;4960855;28;20251;-84
2022/07/16 01:53:13;;;;;;;6.60;5.10;;;;;;;19.98;71.50;94829.25;4959423;28;20209;-85
2022/07/16 01:55:41;;;;;;;11.95;5.00;;;;;;;20.04;70.79;94838.72;4959853;28;20331;-85
2022/07/16 01:58:12;;;;;;;8.10;4.85;;;;;;;19.96;70.70;94834.00;4957592;28;20224;-82
2022/07/16 02:00:40;;;;;;;6.60;4.47;;;;;;;19.89;70.62;94842.22;4971928;28;20203;-82
2022/07/16 02:03:08;;;;;;;7.95;4.53;;;;;;;19.85;70.46;94837.75;4959015;28;20205;-85
2022/07/16 02:05:35;;;;;;;8.93;4.10;;;;;;;19.75;70.52;94842.00;4958453;28;20200;-84
2022/07/16 02:08:02;;;;;;;11.30;4.22;;;;;;;19.77;70.40;94834.63;4966584;28;20209;-84
2022/07/16 02:10:29;;;;;;;6.30;4.13;;;;;;;19.82;69.81;94836.47;4953184;29;20284;-85
2022/07/16 02:12:56;;;;;;;7.60;3.90;;;;;;;19.81;69.73;94840.16;4952855;29;20256;-82
2022/07/16 02:15:24;;;;;;;9.35;4.00;;;;;;;19.75;69.64;94836.75;4954826;28;20233;-81
2022/07/16 02:17:51;;;;;;;5.03;4.00;;;;;;;19.76;69.53;94837.53;4966120;28;20873;-81
2022/07/16 02:20:18;;;;;;;4.45;3.45;;;;;;;19.81;69.52;94838.31;4952995;29;20205;-86
2022/07/16 02:22:45;;;;;;;7.15;3.75;;;;;;;19.76;69.66;94843.59;4953151;29;20645;-88
2022/07/16 02:25:13;;;;;;;6.60;3.78;;;;;;;19.72;69.46;94850.47;4952809;29;20256;-88
2022/07/16 02:28:05;;;;;;;5.97;3.67;;;;;;;19.71;70.28;94848.09;4953127;28;20282;-88
2022/07/16 02:30:29;;;;;;;6.82;3.75;;;;;;;19.61;70.11;94840.22;4953134;28;20227;-88
2022/07/16 02:32:56;;;;;;;7.53;4.15;;;;;;;19.40;70.19;94849.25;4971905;28;20197;-88
2022/07/16 02:35:23;;;;;;;6.13;3.97;;;;;;;19.15;71.73;94853.50;4964893;28;20692;-86
2022/07/16 02:37:49;;;;;;;4.68;3.83;;;;;;;19.02;72.56;94859.28;4971727;28;20232;-86
2022/07/16 02:40:16;;;;;;;5.70;4.30;;;;;;;18.95;73.12;94856.16;4953008;28;20209;-86
2022/07/16 02:42:43;;;;;;;8.27;3.95;;;;;;;18.87;73.31;94848.78;4958944;28;20213;-87
2022/07/16 02:45:11;;;;;;;6.80;4.60;;;;;;;18.89;73.83;94856.41;4964355;28;20204;-87
2022/07/16 02:47:39;;;;;;;11.38;4.60;;;;;;;18.81;74.27;94855.09;4953047;29;20253;-87
2022/07/16 02:50:08;;;;;;;9.35;4.35;;;;;;;18.82;75.49;94843.50;4958395;28;20220;-84
2022/07/16 02:52:35;;;;;;;7.00;4.50;;;;;;;18.97;75.21;94850.59;4959913;28;20204;-82
2022/07/16 02:55:02;;;;;;;6.95;4.22;;;;;;;18.90;75.47;94850.88;4956062;29;20206;-84
2022/07/16 02:57:29;;;;;;;7.10;4.18;;;;;;;19.02;75.99;94854.00;4961609;28;20209;-82
2022/07/16 02:59:56;;;;;;;9.38;4.65;;;;;;;19.07;75.57;94855.88;4968485;28;20211;-84
2022/07/16 03:02:23;;;;;;;7.13;4.25;;;;;;;19.08;75.31;94847.69;4969222;28;20672;-84
2022/07/16 03:04:51;;;;;;;7.85;4.43;;;;;;;19.10;75.56;94850.88;4955778;29;20190;-84
2022/07/16 03:07:18;;;;;;;15.35;4.85;;;;;;;19.14;74.72;94859.00;4956161;29;20197;-84
2022/07/16 03:09:45;;;;;;;10.63;5.03;;;;;;;19.12;75.40;94854.03;4956237;29;20193;-84
2022/07/16 03:12:12;;;;;;;11.75;4.30;;;;;;;19.13;75.50;94860.84;4974516;28;20204;-86
2022/07/16 03:14:39;;;;;;;10.77;4.50;;;;;;;19.18;75.69;94849.53;4974826;28;20229;-85
2022/07/16 03:17:05;;;;;;;12.98;5.10;;;;;;;19.15;74.76;94864.03;4975205;28;20281;-85
2022/07/16 03:19:32;;;;;;;10.95;5.10;;;;;;;19.15;74.40;94858.75;4975209;28;20231;-85
2022/07/16 03:22:00;;;;;;;14.48;5.10;;;;;;;19.18;73.75;94857.44;4969792;28;20668;-82
2022/07/16 03:24:28;;;;;;;9.52;4.57;;;;;;;19.13;74.17;94855.59;4939152;29;20209;-80
2022/07/16 03:26:55;;;;;;;10.35;4.82;;;;;;;19.19;74.45;94856.38;4961842;28;20265;-80
2022/07/16 03:29:22;;;;;;;12.00;4.70;;;;;;;19.17;75.45;94867.19;4973733;28;20208;-83
2022/07/16 03:31:49;;;;;;;13.95;5.63;;;;;;;19.18;75.59;94868.78;4970327;28;20201;-83
2022/07/16 03:34:16;;;;;;;10.60;5.00;;;;;;;19.16;75.52;94878.00;4959944;28;20201;-83
2022/07/16 03:36:43;;;;;;;15.10;5.30;;;;;;;19.05;74.98;94864.03;4956758;28;20692;-83
2022/07/16 03:39:11;;;;;;;10.82;5.28;;;;;;;19.07;74.37;94876.94;4959117;28;20270;-83
2022/07/16 03:41:39;;;;;;;15.90;5.80;;;;;;;19.06;74.87;94881.44;4974307;28;20208;-82
2022/07/16 03:44:08;;;;;;;18.90;5.78;;;;;;;19.08;75.32;94884.56;4974480;28;20208;-83
2022/07/16 03:46:35;;;;;;;11.35;5.60;;;;;;;19.00;75.93;94871.94;4963151;28;20633;-81
2022/07/16 03:49:03;;;;;;;23.30;5.78;;;;;;;19.10;75.57;94885.13;4959218;28;20207;-81
2022/07/16 03:51:30;;;;;;;11.63;5.07;;;;;;;19.19;74.65;94890.66;4969719;28;20296;-81
2022/07/16 03:53:57;;;;;;;16.98;5.18;;;;;;;19.24;75.17;94890.63;4972211;28;20591;-83
2022/07/16 03:56:26;;;;;;;16.15;5.05;;;;;;;19.21;73.71;94886.69;4969827;28;20370;-84
2022/07/16 03:58:53;;;;;;;13.82;5.10;;;;;;;19.18;74.03;94881.94;4954562;29;20225;-84
2022/07/16 04:01:20;;;;;;;12.07;5.20;;;;;;;19.12;74.92;94883.00;4970588;28;20219;-84
2022/07/16 04:03:47;;;;;;;8.15;5.00;;;;;;;19.10;75.14;94885.13;4972479;28;20211;-83
2022/07/16 04:06:14;;;;;;;14.73;5.32;;;;;;;19.00;75.97;94863.25;4973643;28;20276;-83
2022/07/16 04:08:41;;;;;;;11.40;5.22;;;;;;;18.96;75.83;94881.41;4963340;28;20202;-83
2022/07/16 04:11:08;;;;;;;11.07;5.57;;;;;;;18.97;76.41;94880.38;4960895;28;20669;-83
2022/07/16 04:13:38;;;;;;;11.15;5.50;;;;;;;19.00;76.76;94876.41;4970869;28;20215;-83
2022/07/16 04:16:06;;;;;;;14.75;5.50;;;;;;;19.05;76.20;94881.69;4967268;28;20288;-83
2022/07/16 04:18:33;;;;;;;15.23;5.28;;;;;;;19.10;76.73;94876.44;4954002;29;20685;-83
2022/07/16 04:21:00;;;;;;;17.52;5.80;;;;;;;19.20;76.58;94882.47;4964501;28;20201;-83
2022/07/16 04:23:27;;;;;;;18.20;5.13;;;;;;;19.30;76.77;94875.59;4973568;28;20216;-84
2022/07/16 04:25:53;;;;;;;17.20;5.47;;;;;;;19.36;76.80;94885.88;4963439;28;20208;-84
2022/07/16 04:28:20;;;;;;;11.85;5.32;;;;;;;19.49;76.69;94881.91;4970879;28;20656;-82
2022/07/16 04:30:49;;;;;;;7.95;4.82;;;;;;;19.58;76.09;94878.47;4971201;28;20268;-83
2022/07/16 04:33:15;;;;;;;9.13;4.85;;;;;;;19.57;76.13;94890.06;4960022;28;20672;-83
2022/07/16 04:35:42;;;;;;;10.23;4.80;;;;;;;19.57;74.65;94884.78;4965435;28;20656;-83
2022/07/16 04:38:09;;;;;;;12.98;5.10;;;;;;;19.64;73.86;94889.78;4972938;28;20211;-85
2022/07/16 04:40:36;;;;;;;7.45;4.97;;;;;;;19.66;73.60;94898.22;4970573;28;20201;-85
2022/07/16 04:43:03;;;;;;;10.27;4.70;;;;;;;19.73;72.81;94896.09;4958339;28;20197;-85
2022/07/16 04:45:30;;;;;;;8.10;4.85;;;;;;;19.72;72.35;94892.66;4962799;28;20259;-81
2022/07/16 04:47:58;;;;;;;5.93;4.85;;;;;;;19.73;71.18;94894.25;4961845;28;20197;-81
2022/07/16 04:50:25;;;;;;;8.85;4.70;;;;;;;19.79;71.19;94901.09;4966862;28;20197;-82
2022/07/16 04:52:52;;;;;;;7.13;4.07;;;;;;;19.80;71.31;94905.31;4962662;28;20271;-80
2022/07/16 04:55:19;;;;;;;7.28;4.60;;;;;;;19.87;71.72;94909.50;4963228;28;20218;-80
2022/07/16 04:57:45;;;;;;;10.23;4.85;;;;;;;19.88;71.13;94903.97;4966482;28;20217;-80
2022/07/16 05:00:13;;;;;;;9.73;4.28;;;;;;;19.97;70.39;94912.13;4960450;28;20231;-80
2022/07/16 05:02:58;;;;;;;6.43;4.50;;;;;;;20.01;70.15;94906.03;4966574;28;20205;-80
2022/07/16 05:05:27;;;;;;;8.88;4.45;;;;;;;20.12;70.50;94915.47;4959423;28;20699;-80
2022/07/16 05:07:54;;;;;;;9.23;4.78;;;;;;;20.18;70.54;94918.88;4966615;28;20206;-80
2022/07/16 05:10:21;;;;;;;8.57;4.60;;;;;;;20.20;70.06;94917.53;4964215;28;20579;-81
2022/07/16 05:12:48;;;;;;;13.57;5.15;;;;;;;20.20;69.09;94920.19;4972153;28;20216;-80
2022/07/16 05:15:15;;;;;;;10.63;4.97;;;;;;;20.22;68.77;94920.72;4971419;28;20248;-81
2022/07/16 05:17:43;;;;;;;11.52;5.80;;;;;;;20.25;69.00;94919.41;4972940;28;20197;-84
2022/07/16 05:20:10;;;;;;;8.18;5.22;;;;;;;20.27;69.22;94923.34;4965274;28;20220;-80
2022/07/16 05:22:38;;;;;;;10.07;5.85;;;;;;;20.26;68.49;94911.22;4967157;28;20656;-86
2022/07/16 05:25:06;;;;;;;10.57;6.10;;;;;;;20.25;68.60;94912.28;4972864;28;20196;-86
2022/07/16 05:27:33;;;;;;;12.23;6.47;;;;;;;20.37;68.18;94915.38;4970652;28;20193;-77
2022/07/16 05:30:00;;;;;;;14.38;6.07;;;;;;;20.41;68.96;94909.56;4959512;28;20287;-73
2022/07/16 05:32:27;;;;;;;14.68;7.03;;;;;;;20.45;68.41;94910.59;4964739;28;20579;-79
2022/07/16 05:34:54;;;;;;;17.38;7.00;;;;;;;20.46;67.72;94915.59;4958769;28;20216;-77
2022/07/16 05:37:21;;;;;;;15.32;6.63;;;;;;;20.43;67.39;94907.44;4961885;28;20202;-77
2022/07/16 05:39:49;;;;;;;12.70;6.75;;;;;;;20.52;67.55;94919.03;4961866;28;20696;-77
2022/07/16 05:42:16;;;;;;;11.25;6.70;;;;;;;20.60;66.85;94923.72;4959044;28;20225;-77
2022/07/16 05:44:43;;;;;;;16.10;7.03;;;;;;;20.70;65.92;94921.00;4963400;28;20208;-75
2022/07/16 05:47:09;;;;;;;14.35;6.47;;;;;;;20.70;66.16;94921.78;4962839;28;20232;-74
2022/07/16 05:49:36;;;;;;;11.75;6.70;;;;;;;20.75;66.64;94931.56;4959989;28;20208;-75
2022/07/16 05:52:03;;;;;;;12.35;6.55;;;;;;;20.76;66.71;94927.84;4962306;28;20240;-74
2022/07/16 05:54:31;;;;;;;10.88;6.78;;;;;;;20.83;66.57;94923.03;4960987;28;21141;-74
2022/07/16 05:57:00;;;;;;;17.15;7.00;;;;;;;20.90;66.24;94926.16;4960075;28;20204;-74
2022/07/16 05:59:27;;;;;;;15.00;6.78;;;;;;;20.91;66.54;94933.03;4958936;28;20325;-74
2022/07/16 06:01:54;;;;;;;15.63;6.75;;;;;;;20.92;66.95;94929.34;4958576;28;20567;-74
2022/07/16 06:04:20;;;;;;;8.98;5.75;;;;;;;21.00;67.01;94926.09;4965845;28;20209;-74
2022/07/16 06:06:47;;;;;;;8.52;6.05;;;;;;;21.07;67.61;94913.34;4971267;28;20200;-75
2022/07/16 06:09:15;;;;;;;9.63;6.20;;;;;;;21.15;67.47;94914.66;4971397;28;20287;-75
2022/07/16 06:11:42;;;;;;;14.35;5.55;;;;;;;21.26;67.75;94919.56;4971131;28;20330;-75
2022/07/16 06:14:10;;;;;;;11.73;5.35;;;;;;;21.29;68.29;94919.03;4970691;28;20208;-75
2022/07/16 06:16:39;;;;;;;10.48;5.32;;;;;;;21.40;68.45;94920.50;4971429;28;20212;-74
2022/07/16 06:19:06;;;;;;;10.32;5.22;;;;;;;21.47;68.42;94920.94;4971321;28;20229;-79
2022/07/16 06:21:33;;;;;;;8.07;4.88;;;;;;;21.54;68.41;94920.63;4971489;28;20208;-78
2022/07/16 06:24:00;;;;;;;12.07;4.88;;;;;;;21.62;68.56;94913.94;4969377;28;20204;-78
2022/07/16 06:26:27;;;;;;;6.95;4.30;;;;;;;21.68;68.72;94915.47;4961434;28;20750;-77
2022/07/16 06:28:53;;;;;;;9.13;4.68;;;;;;;21.77;68.42;94914.56;4968329;28;20628;-81
2022/07/16 06:31:22;;;;;;;9.00;4.95;;;;;;;21.83;68.12;94907.38;4975714;28;20208;-81
2022/07/16 06:33:49;;;;;;;9.85;5.22;;;;;;;21.91;68.47;94915.50;4975494;28;20212;-78
2022/07/16 06:36:16;;;;;;;9.45;4.93;;;;;;;22.07;67.97;94910.03;4967556;28;20212;-85
2022/07/16 06:38:43;;;;;;;11.48;5.07;;;;;;;22.16;68.49;94911.78;4963918;28;20723;-80
2022/07/16 06:41:10;;;;;;;13.93;3.88;;;;;;;22.25;70.42;94917.25;4975126;28;20296;-80
2022/07/16 06:43:37;;;;;;;7.45;4.50;;;;;;;22.45;66.62;94909.78;4973865;28;20209;-83
2022/07/16 06:46:03;;;;;;;6.03;4.78;;;;;;;22.67;65.23;94911.94;4973813;28;20232;-82
2022/07/16 06:48:33;;;;;;;11.88;4.68;;;;;;;22.70;64.29;94910.56;4969903;28;20216;-84
2022/07/16 06:51:01;;;;;;;6.63;5.18;;;;;;;22.71;64.81;94917.44;4974708;28;20271;-84
2022/07/16 06:53:28;;;;;;;14.10;4.70;;;;;;;22.75;66.86;94918.44;4961190;28;20209;-84
2022/07/16 06:55:55;;;;;;;13.15;5.40;;;;;;;22.79;65.10;94914.16;4956339;28;20642;-80
2022/07/16 06:58:22;;;;;;;11.55;4.45;;;;;;;22.79;65.89;94912.28;4975100;28;20216;-82
2022/07/16 07:00:49;;;;;;;9.15;4.57;;;;;;;22.80;64.44;94923.69;4945016;28;20229;-79
2022/07/16 07:03:16;;;;;;;6.65;4.70;;;;;;;22.77;64.18;94917.06;4962497;28;20212;-77
2022/07/16 07:05:44;;;;;;;28.38;5.00;;;;;;;22.87;67.11;94913.50;4968013;28;20201;-83
2022/07/16 07:08:11;;;;;;;9.73;5.03;;;;;;;23.05;64.78;94926.75;4968095;28;20272;-81
2022/07/16 07:10:38;;;;;;;13.60;4.05;;;;;;;23.05;65.59;94924.09;4955846;28;20210;-81
2022/07/16 07:13:08;;;;;;;11.90;4.70;;;;;;;23.16;64.15;94922.06;4961942;28;20229;-81
2022/07/16 07:15:35;;;;;;;9.75;4.60;;;;;;;23.22;63.99;94928.06;4964044;28;20296;-82
2022/07/16 07:18:02;;;;;;;7.78;4.50;;;;;;;23.31;63.66;94913.84;4968991;28;20200;-78
2022/07/16 07:20:30;;;;;;;7.85;4.55;;;;;;;23.46;61.85;94913.59;4974319;28;20248;-81
2022/07/16 07:22:58;;;;;;;6.82;4.68;;;;;;;23.60;61.84;94914.44;4961109;28;20591;-80
2022/07/16 07:25:25;;;;;;;8.15;4.20;;;;;;;23.60;61.10;94916.31;4956651;28;20600;-80
2022/07/16 07:27:54;;;;;;;6.05;4.35;;;;;;;23.63;61.71;94915.72;4964500;28;20210;-81
2022/07/16 07:30:22;;;;;;;8.05;4.78;;;;;;;23.71;61.03;94915.84;4960817;28;20198;-77
2022/07/16 07:32:48;;;;;;;5.45;4.55;;;;;;;23.63;61.36;94908.56;4961987;28;20200;-76
2022/07/16 07:35:17;;;;;;;10.13;5.28;;;;;;;23.71;60.94;94915.84;4966058;28;20197;-76
2022/07/16 07:37:45;;;;;;;10.10;4.45;;;;;;;23.83;60.02;94917.22;4967487;28;20587;-77
2022/07/16 07:40:14;;;;;;;9.48;4.68;;;;;;;23.93;60.12;94914.34;4966390;28;20232;-76
2022/07/16 07:42:41;;;;;;;8.27;4.60;;;;;;;24.01;61.17;94919.00;4973061;28;20204;-76
2022/07/16 07:45:09;;;;;;;7.90;4.60;;;;;;;24.18;63.87;94919.22;4966852;28;20571;-81
2022/07/16 07:47:37;;;;;;;13.02;4.78;;;;;;;24.33;61.32;94932.19;4961810;28;20204;-79
2022/07/16 07:50:04;;;;;;;15.00;4.68;;;;;;;24.46;60.19;94925.28;4973024;28;20201;-78
2022/07/16 07:52:32;;;;;;;10.23;4.60;;;;;;;24.57;60.24;94932.75;4973720;28;20208;-78
2022/07/16 07:55:00;;;;;;;7.20;4.40;;;;;;;24.69;60.09;94929.56;4972815;28;20204;-79
2022/07/16 07:57:28;;;;;;;10.15;4.20;;;;;;;24.86;53.75;94932.41;4966635;28;20653;-79
2022/07/16 07:59:55;;;;;;;9.05;4.15;;;;;;;24.86;53.41;94926.31;4961054;28;20229;-79
2022/07/16 08:02:21;;;;;;;7.55;4.00;;;;;;;24.92;55.48;94933.09;4973690;28;20284;-79
2022/07/16 08:04:48;;;;;;;6.05;4.40;;;;;;;24.99;54.96;94933.47;4973553;28;20215;-78
2022/07/16 08:07:15;;;;;;;7.05;4.32;;;;;;;25.04;54.21;94928.03;4972964;28;20220;-77
2022/07/16 08:09:42;;;;;;;7.63;4.45;;;;;;;25.08;53.15;94926.34;4966814;28;20205;-78
2022/07/16 08:12:08;;;;;;;4.70;4.18;;;;;;;25.12;52.68;94920.09;4966422;28;20204;-78
2022/07/16 08:14:37;;;;;;;8.15;4.13;;;;;;;25.18;52.89;94916.25;4966474;28;20720;-78
2022/07/16 08:17:04;;;;;;;10.75;4.53;;;;;;;25.33;51.84;94923.84;4953664;28;20224;-77
2022/07/16 08:19:32;;;;;;;9.07;3.78;;;;;;;25.38;51.60;94925.59;4956116;28;20228;-78
2022/07/16 08:22:00;;;;;;;5.82;4.10;;;;;;;25.44;50.88;94923.59;4962853;28;20205;-78
2022/07/16 08:27:11;;;;;;;10.13;4.45;;;;;;;25.50;50.99;94920.53;4962519;28;20196;-77
2022/07/16 08:29:40;;;;;;;8.10;4.60;;;;;;;25.58;50.46;94924.34;4962263;28;20280;-82
2022/07/16 08:32:07;;;;;;;6.57;3.60;;;;;;;25.54;50.76;94924.16;4962940;28;20201;-80
2022/07/16 08:34:34;;;;;;;6.53;4.13;;;;;;;25.59;50.70;94920.59;4963708;28;20208;-77
2022/07/16 08:37:01;;;;;;;6.65;4.03;;;;;;;25.68;50.67;94924.88;4959391;28;20213;-77
2022/07/16 08:39:28;;;;;;;9.93;4.20;;;;;;;25.78;51.28;94921.16;4953288;28;20668;-77
2022/07/16 08:41:56;;;;;;;9.50;4.32;;;;;;;25.91;53.29;94925.59;4954398;28;20261;-77
2022/07/16 08:44:23;;;;;;;8.38;3.78;;;;;;;26.01;53.21;94927.97;4971448;28;20686;-77
2022/07/16 08:46:52;;;;;;;7.75;3.85;;;;;;;26.10;53.24;94928.00;4953241;28;20216;-77
2022/07/16 08:49:21;;;;;;;8.98;5.05;;;;;;;26.24;49.31;94929.50;4953388;28;20672;-77
2022/07/16 08:51:48;;;;;;;8.25;3.90;;;;;;;26.22;49.43;94928.25;4952638;28;20679;-77
2022/07/16 08:54:20;;;;;;;5.05;3.58;;;;;;;26.26;50.69;94921.97;4953327;28;20233;-77
2022/07/16 08:56:47;;;;;;;6.72;4.20;;;;;;;26.38;49.45;94924.03;4953324;28;20212;-77
2022/07/16 08:59:15;;;;;;;4.13;3.70;;;;;;;26.40;50.43;94920.00;4955745;28;20209;-83
2022/07/16 09:01:42;;;;;;;6.57;4.07;;;;;;;26.53;50.09;94936.94;4963656;28;20251;-82
2022/07/16 09:04:11;;;;;;;6.15;3.80;;;;;;;26.63;48.24;94930.53;4969931;28;20214;-83
2022/07/16 09:06:38;;;;;;;10.40;4.07;;;;;;;26.62;47.93;94928.97;4965964;28;20213;-82
2022/07/16 09:09:05;;;;;;;8.77;4.40;;;;;;;26.72;47.82;94931.34;4971690;28;20208;-81
2022/07/16 09:11:34;;;;;;;5.20;3.90;;;;;;;26.76;46.82;94935.72;4965628;28;20198;-81
2022/07/16 09:14:03;;;;;;;5.50;3.60;;;;;;;26.76;47.59;94934.94;4966521;28;20193;-82
2022/07/16 09:16:30;;;;;;;8.23;3.80;;;;;;;26.83;47.40;94933.44;4951034;28;20201;-81
2022/07/16 09:19:18;;;;;;;6.95;3.63;;;;;;;26.90;47.72;94927.59;4956951;28;20767;-82
2022/07/16 09:22:06;;;;;;;6.05;3.45;;;;;;;26.96;48.15;94911.13;4956169;28;20217;-81
2022/07/16 09:24:40;;;;;;;9.30;4.30;;;;;;;27.05;47.74;94925.25;4953450;29;20598;-81
2022/07/16 09:27:10;;;;;;;8.23;4.18;;;;;;;27.14;46.24;94911.91;4946415;29;20210;-81
2022/07/16 09:29:44;;;;;;;4.88;3.70;;;;;;;27.20;48.04;94920.53;4953463;29;20216;-82
2022/07/16 09:32:12;;;;;;;7.18;3.70;;;;;;;27.28;46.41;94915.19;4952588;29;20212;-80
2022/07/16 09:34:41;;;;;;;8.23;3.90;;;;;;;27.49;45.72;94913.47;4952869;29;20288;-78
2022/07/16 09:37:08;;;;;;;6.28;3.90;;;;;;;27.49;45.91;94916.13;4943272;29;20202;-79
2022/07/16 09:39:35;;;;;;;4.40;3.70;;;;;;;27.58;44.77;94916.91;4948530;29;20205;-76
2022/07/16 09:42:03;;;;;;;12.02;3.85;;;;;;;27.59;44.52;94907.78;4951981;29;20261;-76
2022/07/16 09:44:31;;;;;;;9.77;4.00;;;;;;;27.73;43.93;94909.47;4945820;29;20205;-79
2022/07/16 09:47:04;;;;;;;6.35;3.88;;;;;;;27.88;44.08;94907.06;4952743;29;20208;-82
2022/07/16 09:49:34;;;;;;;6.55;4.07;;;;;;;28.04;45.27;94905.47;4953024;29;20241;-80
2022/07/16 09:52:03;;;;;;;6.43;4.00;;;;;;;28.18;44.66;94907.91;4945293;29;20679;-79
2022/07/16 09:54:33;;;;;;;7.50;3.63;;;;;;;28.38;43.64;94909.84;4952512;29;20669;-79
2022/07/16 09:57:15;;;;;;;4.75;3.65;;;;;;;28.46;41.99;94905.53;4951977;29;20243;-79
2022/07/16 09:59:43;;;;;;;6.40;3.70;;;;;;;28.53;41.65;94911.16;4951912;29;20248;-74
2022/07/16 10:02:10;;;;;;;6.97;4.20;;;;;;;28.59;40.52;94905.31;4952166;28;20205;-75
2022/07/16 10:04:37;;;;;;;10.10;4.00;;;;;;;28.62;41.50;94896.63;4955911;29;20210;-76
2022/07/16 10:07:06;;;;;;;6.60;3.60;;;;;;;28.74;41.06;94898.63;4955281;29;20213;-74
2022/07/16 10:09:33;;;;;;;6.00;3.67;;;;;;;28.91;41.16;94901.19;4956196;29;20662;-75
2022/07/16 10:12:06;;;;;;;5.30;3.70;;;;;;;29.08;41.12;94897.56;4955995;29;20205;-74
2022/07/16 10:14:35;;;;;;;7.10;3.90;;;;;;;29.14;41.78;94901.59;4959555;28;20240;-76
2022/07/16 10:17:12;;;;;;;5.85;4.38;;;;;;;29.32;41.52;94891.56;4956334;28;20216;-76
2022/07/16 10:19:39;;;;;;;7.15;4.13;;;;;;;29.42;40.38;94896.47;4970054;28;20219;-76
2022/07/16 10:22:31;;;;;;;4.15;3.40;;;;;;;29.66;39.04;94896.56;4974968;28;20244;-75
2022/07/16 10:24:59;;;;;;;5.53;4.20;;;;;;;29.77;38.92;94901.16;4960801;28;20563;-76
2022/07/16 10:27:29;;;;;;;10.10;3.70;;;;;;;29.88;38.59;94904.22;4975257;28;20272;-76
2022/07/16 10:30:16;;;;;;;9.07;3.70;;;;;;;29.87;38.73;94891.91;4975132;28;20674;-76
2022/07/16 10:33:10;;;;;;;7.05;3.67;;;;;;;29.96;38.73;94889.91;4956280;28;20216;-76
2022/07/16 10:35:39;;;;;;;9.43;3.88;;;;;;;30.14;38.96;94895.84;4955481;28;20240;-76
2022/07/16 10:38:10;;;;;;;8.15;3.65;;;;;;;30.31;38.12;94891.03;4955868;28;20201;-76
2022/07/16 10:40:37;;;;;;;6.20;3.45;;;;;;;30.47;37.67;94887.72;4966790;28;20247;-76
2022/07/16 10:43:15;;;;;;;6.82;3.67;;;;;;;30.65;37.10;94887.09;4974374;28;20216;-74
2022/07/16 10:45:54;;;;;;;7.90;3.20;;;;;;;30.92;37.62;94891.75;4962567;28;20209;-74
2022/07/16 10:48:22;;;;;;;8.73;6.45;;;;;;;31.12;37.27;94891.91;4968966;28;20209;-75
2022/07/16 10:51:15;;;;;;;5.15;3.40;;;;;;;31.25;36.04;94891.56;4974515;28;20212;-84
2022/07/16 10:54:27;;;;;;;5.18;3.17;;;;;;;31.23;36.82;94893.78;4961523;28;20220;-80
2022/07/16 10:56:57;;;;;;;6.45;3.28;;;;;;;31.31;36.74;94892.09;4968923;28;20295;-80
2022/07/16 10:59:26;;;;;;;5.95;3.67;;;;;;;31.43;35.35;94871.28;4965875;28;20205;-80
2022/07/16 11:01:55;;;;;;;5.32;3.45;;;;;;;31.45;36.41;94881.72;4965071;28;20230;-80
2022/07/16 11:04:43;;;;;;;8.23;3.78;;;;;;;31.62;35.62;94886.00;4966272;28;20211;-80
2022/07/16 11:07:12;;;;;;;6.00;3.17;;;;;;;31.84;34.47;94885.41;4970300;28;20224;-81
2022/07/16 11:09:41;;;;;;;4.82;3.17;;;;;;;31.90;34.24;94881.34;4973835;28;20224;-81
2022/07/16 11:12:26;;;;;;;7.30;3.60;;;;;;;31.96;34.49;94877.25;4961245;28;20213;-82
2022/07/16 11:14:55;;;;;;;7.25;3.17;;;;;;;31.93;32.75;94873.38;4970605;28;20239;-82
2022/07/16 11:17:24;;;;;;;3.03;2.63;;;;;;;31.96;33.01;94878.06;4958526;28;20699;-82
2022/07/16 11:19:55;;;;;;;6.07;2.90;;;;;;;32.16;32.93;94872.75;4971490;28;20209;-82
2022/07/16 11:22:23;;;;;;;8.35;3.00;;;;;;;32.37;32.87;94879.44;4961426;28;20231;-82
2022/07/16 11:24:53;;;;;;;8.20;3.08;;;;;;;32.25;32.12;94884.13;4968454;28;20205;-81
2022/07/16 11:27:26;;;;;;;6.53;2.88;;;;;;;32.26;33.08;94875.72;4974595;28;20287;-83
2022/07/16 11:29:56;;;;;;;7.38;3.17;;;;;;;32.54;32.88;94878.25;4974814;28;20212;-83
2022/07/16 11:32:23;;;;;;;6.80;3.00;;;;;;;32.63;32.43;94872.72;4969898;28;20828;-82
2022/07/16 11:34:50;;;;;;;6.75;3.25;;;;;;;32.71;32.47;94877.09;4965757;28;20208;-81
2022/07/16 11:37:18;;;;;;;4.13;3.33;;;;;;;32.90;32.95;94877.16;4963680;28;20202;-82
2022/07/16 11:39:45;;;;;;;8.43;3.03;;;;;;;33.00;32.41;94876.56;4962056;28;20200;-82